sensor_id;sensor_type;location;lat;lon;timestamp;P1;P2;P0
31330;PMS5003;34067;39.548;-76.088;2023-11-19T00:01:33;3;3;
31330;PMS5003;34067;39.548;-76.088;2023-11-19T00:04:01;3;3;
31330;PMS5003;34067;39.548;-76.088;2023-11-19T00:06:29;3;2;
31330;PMS5003;34067;39.548;-76.088;2023-11-19T00:08:58;2;2;
31330;PMS5003;34067;39.548;-76.088;2023-11-19T00:11:26;2;2;
31330;PMS5003;34067;39.548;-76.088;2023-11-19T00:13:54;3;3;
31330;PMS5003;34067;39.548;-76.088;2023-11-19T00:16:22;3;3;
31330;PMS5003;34067;39.548;-76.088;2023-11-19T00:18:50;5;2;
31330;PMS5003;34067;39.548;-76.088;2023-11-19T00:21:18;3;2;
31330;PMS5003;34067;39.548;-76.088;2023-11-19T00:23:47;4;4;
31330;PMS5003;34067;39.548;-76.088;2023-11-19T00:26:15;3;3;
31330;PMS5003;34067;39.548;-76.088;2023-11-19T00:28:43;4;3;
31330;PMS5003;34067;39.548;-76.088;2023-11-19T00:31:11;5;5;
31330;PMS5003;34067;39.548;-76.088;2023-11-19T00:33:39;4;4;
31330;PMS5003;34067;39.548;-76.088;2023-11-19T00:36:08;2;2;
31330;PMS5003;34067;39.548;-76.088;2023-11-19T00:38:36;1;1;
31330;PMS5003;34067;39.548;-76.088;2023-11-19T00:41:04;2;2;
31330;PMS5003;34067;39.548;-76.088;2023-11-19T00:43:32;3;2;
31330;PMS5003;34067;39.548;-76.088;2023-11-19T00:46:00;3;3;
31330;PMS5003;34067;39.548;-76.088;2023-11-19T00:48:29;3;3;
31330;PMS5003;34067;39.548;-76.088;2023-11-19T00:50:57;3;3;
31330;PMS5003;34067;39.548;-76.088;2023-11-19T00:53:25;2;2;
31330;PMS5003;34067;39.548;-76.088;2023-11-19T00:55:53;3;3;
31330;PMS5003;34067;39.548;-76.088;2023-11-19T00:58:21;2;2;
31330;PMS5003;34067;39.548;-76.088;2023-11-19T01:00:50;3;3;
31330;PMS5003;34067;39.548;-76.088;2023-11-19T01:03:18;2;2;
31330;PMS5003;34067;39.548;-76.088;2023-11-19T01:05:46;3;3;
31330;PMS5003;34067;39.548;-76.088;2023-11-19T01:08:14;3;3;
31330;PMS5003;34067;39.548;-76.088;2023-11-19T01:10:42;3;3;
31330;PMS5003;34067;39.548;-76.088;2023-11-19T01:13:10;4;3;
31330;PMS5003;34067;39.548;-76.088;2023-11-19T01:15:39;3;3;
31330;PMS5003;34067;39.548;-76.088;2023-11-19T01:18:07;6;6;
31330;PMS5003;34067;39.548;-76.088;2023-11-19T01:20:35;7;5;
31330;PMS5003;34067;39.548;-76.088;2023-11-19T01:23:03;6;5;
31330;PMS5003;34067;39.548;-76.088;2023-11-19T01:25:31;5;4;
31330;PMS5003;34067;39.548;-76.088;2023-11-19T01:28:00;4;4;
31330;PMS5003;34067;39.548;-76.088;2023-11-19T01:30:28;5;5;
31330;PMS5003;34067;39.548;-76.088;2023-11-19T01:32:56;6;5;
31330;PMS5003;34067;39.548;-76.088;2023-11-19T01:35:24;3;3;
31330;PMS5003;34067;39.548;-76.088;2023-11-19T01:37:52;3;3;
31330;PMS5003;34067;39.548;-76.088;2023-11-19T01:40:21;5;5;
31330;PMS5003;34067;39.548;-76.088;2023-11-19T01:42:49;3;3;
31330;PMS5003;34067;39.548;-76.088;2023-11-19T01:45:21;3;3;
31330;PMS5003;34067;39.548;-76.088;2023-11-19T01:47:54;7;5;
31330;PMS5003;34067;39.548;-76.088;2023-11-19T01:50:22;4;4;
31330;PMS5003;34067;39.548;-76.088;2023-11-19T01:52:51;5;5;
31330;PMS5003;34067;39.548;-76.088;2023-11-19T01:55:20;5;5;
31330;PMS5003;34067;39.548;-76.088;2023-11-19T01:57:49;5;4;
31330;PMS5003;34067;39.548;-76.088;2023-11-19T02:00:17;5;5;
31330;PMS5003;34067;39.548;-76.088;2023-11-19T02:02:46;5;4;
31330;PMS5003;34067;39.548;-76.088;2023-11-19T02:05:16;4;4;
31330;PMS5003;34067;39.548;-76.088;2023-11-19T02:07:44;7;6;
31330;PMS5003;34067;39.548;-76.088;2023-11-19T02:10:11;14;13;
31330;PMS5003;34067;39.548;-76.088;2023-11-19T02:12:40;8;7;
31330;PMS5003;34067;39.548;-76.088;2023-11-19T02:15:08;7;7;
31330;PMS5003;34067;39.548;-76.088;2023-11-19T02:17:36;6;6;
31330;PMS5003;34067;39.548;-76.088;2023-11-19T02:20:04;5;4;
31330;PMS5003;34067;39.548;-76.088;2023-11-19T02:22:33;7;7;
31330;PMS5003;34067;39.548;-76.088;2023-11-19T02:25:02;6;6;
31330;PMS5003;34067;39.548;-76.088;2023-11-19T02:27:44;7;7;
31330;PMS5003;34067;39.548;-76.088;2023-11-19T02:30:15;6;6;
31330;PMS5003;34067;39.548;-76.088;2023-11-19T02:32:43;3;3;
31330;PMS5003;34067;39.548;-76.088;2023-11-19T02:35:12;4;4;
31330;PMS5003;34067;39.548;-76.088;2023-11-19T02:37:40;6;5;
31330;PMS5003;34067;39.548;-76.088;2023-11-19T02:40:08;7;7;
31330;PMS5003;34067;39.548;-76.088;2023-11-19T02:42:37;6;5;
31330;PMS5003;34067;39.548;-76.088;2023-11-19T02:45:05;7;6;
31330;PMS5003;34067;39.548;-76.088;2023-11-19T02:47:34;4;4;
31330;PMS5003;34067;39.548;-76.088;2023-11-19T02:50:02;5;5;
31330;PMS5003;34067;39.548;-76.088;2023-11-19T02:52:30;4;3;
31330;PMS5003;34067;39.548;-76.088;2023-11-19T02:54:57;4;3;
31330;PMS5003;34067;39.548;-76.088;2023-11-19T02:57:26;6;5;
31330;PMS5003;34067;39.548;-76.088;2023-11-19T02:59:58;4;4;
31330;PMS5003;34067;39.548;-76.088;2023-11-19T03:02:27;4;4;
31330;PMS5003;34067;39.548;-76.088;2023-11-19T03:04:55;4;4;
31330;PMS5003;34067;39.548;-76.088;2023-11-19T03:07:23;7;7;
31330;PMS5003;34067;39.548;-76.088;2023-11-19T03:09:50;5;5;
31330;PMS5003;34067;39.548;-76.088;2023-11-19T03:12:18;5;4;
31330;PMS5003;34067;39.548;-76.088;2023-11-19T03:14:45;5;5;
31330;PMS5003;34067;39.548;-76.088;2023-11-19T03:17:13;5;5;
31330;PMS5003;34067;39.548;-76.088;2023-11-19T03:19:41;5;5;
31330;PMS5003;34067;39.548;-76.088;2023-11-19T03:22:08;7;6;
31330;PMS5003;34067;39.548;-76.088;2023-11-19T03:24:36;7;5;
31330;PMS5003;34067;39.548;-76.088;2023-11-19T03:27:03;8;7;
31330;PMS5003;34067;39.548;-76.088;2023-11-19T03:29:31;7;7;
31330;PMS5003;34067;39.548;-76.088;2023-11-19T03:31:59;12;11;
31330;PMS5003;34067;39.548;-76.088;2023-11-19T03:34:26;14;13;
31330;PMS5003;34067;39.548;-76.088;2023-11-19T03:36:53;15;14;
31330;PMS5003;34067;39.548;-76.088;2023-11-19T03:39:21;18;17;
31330;PMS5003;34067;39.548;-76.088;2023-11-19T03:41:49;8;7;
31330;PMS5003;34067;39.548;-76.088;2023-11-19T03:44:18;26;24;
31330;PMS5003;34067;39.548;-76.088;2023-11-19T03:46:47;33;32;
31330;PMS5003;34067;39.548;-76.088;2023-11-19T03:49:15;30;30;
31330;PMS5003;34067;39.548;-76.088;2023-11-19T03:51:42;35;33;
31330;PMS5003;34067;39.548;-76.088;2023-11-19T03:54:10;36;36;
31330;PMS5003;34067;39.548;-76.088;2023-11-19T03:56:38;17;16;
31330;PMS5003;34067;39.548;-76.088;2023-11-19T03:59:05;40;39;
31330;PMS5003;34067;39.548;-76.088;2023-11-19T04:01:33;37;37;
31330;PMS5003;34067;39.548;-76.088;2023-11-19T04:04:01;61;60;
31330;PMS5003;34067;39.548;-76.088;2023-11-19T04:06:29;84;84;
31330;PMS5003;34067;39.548;-76.088;2023-11-19T04:08:57;7;7;
31330;PMS5003;34067;39.548;-76.088;2023-11-19T04:11:25;15;14;
31330;PMS5003;34067;39.548;-76.088;2023-11-19T04:13:53;14;14;
31330;PMS5003;34067;39.548;-76.088;2023-11-19T04:16:25;17;16;
31330;PMS5003;34067;39.548;-76.088;2023-11-19T04:18:58;16;14;
31330;PMS5003;34067;39.548;-76.088;2023-11-19T04:21:26;21;21;
31330;PMS5003;34067;39.548;-76.088;2023-11-19T04:23:54;15;15;
31330;PMS5003;34067;39.548;-76.088;2023-11-19T04:26:21;39;37;
31330;PMS5003;34067;39.548;-76.088;2023-11-19T04:28:50;23;22;
31330;PMS5003;34067;39.548;-76.088;2023-11-19T04:31:17;31;30;
31330;PMS5003;34067;39.548;-76.088;2023-11-19T04:33:45;36;36;
31330;PMS5003;34067;39.548;-76.088;2023-11-19T04:36:18;30;28;
31330;PMS5003;34067;39.548;-76.088;2023-11-19T04:38:45;30;29;
31330;PMS5003;34067;39.548;-76.088;2023-11-19T04:41:13;24;22;
31330;PMS5003;34067;39.548;-76.088;2023-11-19T04:43:41;39;38;
31330;PMS5003;34067;39.548;-76.088;2023-11-19T04:46:09;36;36;
31330;PMS5003;34067;39.548;-76.088;2023-11-19T04:48:37;23;22;
31330;PMS5003;34067;39.548;-76.088;2023-11-19T04:51:05;39;38;
31330;PMS5003;34067;39.548;-76.088;2023-11-19T04:53:34;32;31;
31330;PMS5003;34067;39.548;-76.088;2023-11-19T04:56:07;18;16;
31330;PMS5003;34067;39.548;-76.088;2023-11-19T04:58:35;42;40;
31330;PMS5003;34067;39.548;-76.088;2023-11-19T05:01:04;45;44;
31330;PMS5003;34067;39.548;-76.088;2023-11-19T05:03:32;19;19;
31330;PMS5003;34067;39.548;-76.088;2023-11-19T05:05:59;38;37;
31330;PMS5003;34067;39.548;-76.088;2023-11-19T05:08:27;41;40;
31330;PMS5003;34067;39.548;-76.088;2023-11-19T05:10:55;46;46;
31330;PMS5003;34067;39.548;-76.088;2023-11-19T05:13:23;17;17;
31330;PMS5003;34067;39.548;-76.088;2023-11-19T05:15:51;18;18;
31330;PMS5003;34067;39.548;-76.088;2023-11-19T05:18:20;33;30;
31330;PMS5003;34067;39.548;-76.088;2023-11-19T05:20:48;32;31;
31330;PMS5003;34067;39.548;-76.088;2023-11-19T05:23:16;28;27;
31330;PMS5003;34067;39.548;-76.088;2023-11-19T05:25:44;28;28;
31330;PMS5003;34067;39.548;-76.088;2023-11-19T05:28:12;31;30;
31330;PMS5003;34067;39.548;-76.088;2023-11-19T05:30:40;29;28;
31330;PMS5003;34067;39.548;-76.088;2023-11-19T05:33:08;26;23;
31330;PMS5003;34067;39.548;-76.088;2023-11-19T05:35:36;30;29;
31330;PMS5003;34067;39.548;-76.088;2023-11-19T05:38:03;21;20;
31330;PMS5003;34067;39.548;-76.088;2023-11-19T05:40:32;19;19;
31330;PMS5003;34067;39.548;-76.088;2023-11-19T05:43:00;29;29;
31330;PMS5003;34067;39.548;-76.088;2023-11-19T05:45:27;21;21;
31330;PMS5003;34067;39.548;-76.088;2023-11-19T05:47:56;21;21;
31330;PMS5003;34067;39.548;-76.088;2023-11-19T05:50:24;24;22;
31330;PMS5003;34067;39.548;-76.088;2023-11-19T05:52:51;31;30;
31330;PMS5003;34067;39.548;-76.088;2023-11-19T05:55:19;25;23;
31330;PMS5003;34067;39.548;-76.088;2023-11-19T05:57:47;26;23;
31330;PMS5003;34067;39.548;-76.088;2023-11-19T06:03:15;29;29;
31330;PMS5003;34067;39.548;-76.088;2023-11-19T06:05:44;35;35;
31330;PMS5003;34067;39.548;-76.088;2023-11-19T06:08:12;26;26;
31330;PMS5003;34067;39.548;-76.088;2023-11-19T06:10:40;24;24;
31330;PMS5003;34067;39.548;-76.088;2023-11-19T06:13:08;29;28;
31330;PMS5003;34067;39.548;-76.088;2023-11-19T06:15:36;26;26;
31330;PMS5003;34067;39.548;-76.088;2023-11-19T06:18:04;17;17;
31330;PMS5003;34067;39.548;-76.088;2023-11-19T06:20:31;8;6;
31330;PMS5003;34067;39.548;-76.088;2023-11-19T06:23:00;9;9;
31330;PMS5003;34067;39.548;-76.088;2023-11-19T06:25:28;9;8;
31330;PMS5003;34067;39.548;-76.088;2023-11-19T06:27:55;9;8;
31330;PMS5003;34067;39.548;-76.088;2023-11-19T06:30:23;11;10;
31330;PMS5003;34067;39.548;-76.088;2023-11-19T06:32:51;6;6;
31330;PMS5003;34067;39.548;-76.088;2023-11-19T06:35:19;8;6;
31330;PMS5003;34067;39.548;-76.088;2023-11-19T06:37:46;9;9;
31330;PMS5003;34067;39.548;-76.088;2023-11-19T06:40:14;6;6;
31330;PMS5003;34067;39.548;-76.088;2023-11-19T06:42:43;10;9;
31330;PMS5003;34067;39.548;-76.088;2023-11-19T06:45:10;8;6;
31330;PMS5003;34067;39.548;-76.088;2023-11-19T06:47:39;8;6;
31330;PMS5003;34067;39.548;-76.088;2023-11-19T06:50:07;8;8;
31330;PMS5003;34067;39.548;-76.088;2023-11-19T06:52:34;9;9;
31330;PMS5003;34067;39.548;-76.088;2023-11-19T06:55:02;8;8;
31330;PMS5003;34067;39.548;-76.088;2023-11-19T06:57:30;10;9;
31330;PMS5003;34067;39.548;-76.088;2023-11-19T06:59:58;9;8;
31330;PMS5003;34067;39.548;-76.088;2023-11-19T07:02:26;8;6;
31330;PMS5003;34067;39.548;-76.088;2023-11-19T07:04:53;6;6;
31330;PMS5003;34067;39.548;-76.088;2023-11-19T07:07:21;8;8;
31330;PMS5003;34067;39.548;-76.088;2023-11-19T07:09:48;9;8;
31330;PMS5003;34067;39.548;-76.088;2023-11-19T07:12:16;8;8;
31330;PMS5003;34067;39.548;-76.088;2023-11-19T07:14:44;9;9;
31330;PMS5003;34067;39.548;-76.088;2023-11-19T07:17:12;6;6;
31330;PMS5003;34067;39.548;-76.088;2023-11-19T07:19:39;10;9;
31330;PMS5003;34067;39.548;-76.088;2023-11-19T07:22:07;9;9;
31330;PMS5003;34067;39.548;-76.088;2023-11-19T07:24:34;8;8;
31330;PMS5003;34067;39.548;-76.088;2023-11-19T07:27:02;9;8;
31330;PMS5003;34067;39.548;-76.088;2023-11-19T07:29:30;9;9;
31330;PMS5003;34067;39.548;-76.088;2023-11-19T07:31:57;6;6;
31330;PMS5003;34067;39.548;-76.088;2023-11-19T07:34:25;9;9;
31330;PMS5003;34067;39.548;-76.088;2023-11-19T07:36:53;8;8;
31330;PMS5003;34067;39.548;-76.088;2023-11-19T07:39:20;8;5;
31330;PMS5003;34067;39.548;-76.088;2023-11-19T07:41:48;10;8;
31330;PMS5003;34067;39.548;-76.088;2023-11-19T07:44:16;9;8;
31330;PMS5003;34067;39.548;-76.088;2023-11-19T07:46:44;8;8;
31330;PMS5003;34067;39.548;-76.088;2023-11-19T07:49:12;9;9;
31330;PMS5003;34067;39.548;-76.088;2023-11-19T07:51:41;8;8;
31330;PMS5003;34067;39.548;-76.088;2023-11-19T07:54:09;6;5;
31330;PMS5003;34067;39.548;-76.088;2023-11-19T07:56:36;10;9;
31330;PMS5003;34067;39.548;-76.088;2023-11-19T07:59:04;8;6;
31330;PMS5003;34067;39.548;-76.088;2023-11-19T08:01:31;8;6;
31330;PMS5003;34067;39.548;-76.088;2023-11-19T08:04:00;8;6;
31330;PMS5003;34067;39.548;-76.088;2023-11-19T08:06:28;9;6;
31330;PMS5003;34067;39.548;-76.088;2023-11-19T08:08:56;8;6;
31330;PMS5003;34067;39.548;-76.088;2023-11-19T08:11:24;9;8;
31330;PMS5003;34067;39.548;-76.088;2023-11-19T08:13:51;8;5;
31330;PMS5003;34067;39.548;-76.088;2023-11-19T08:16:19;8;6;
31330;PMS5003;34067;39.548;-76.088;2023-11-19T08:18:46;7;7;
31330;PMS5003;34067;39.548;-76.088;2023-11-19T08:21:14;5;5;
31330;PMS5003;34067;39.548;-76.088;2023-11-19T08:23:41;9;6;
31330;PMS5003;34067;39.548;-76.088;2023-11-19T08:26:09;8;6;
31330;PMS5003;34067;39.548;-76.088;2023-11-19T08:28:37;7;7;
31330;PMS5003;34067;39.548;-76.088;2023-11-19T08:31:05;8;7;
31330;PMS5003;34067;39.548;-76.088;2023-11-19T08:33:32;9;9;
31330;PMS5003;34067;39.548;-76.088;2023-11-19T08:36:00;7;7;
31330;PMS5003;34067;39.548;-76.088;2023-11-19T08:38:28;8;8;
31330;PMS5003;34067;39.548;-76.088;2023-11-19T08:40:56;9;8;
31330;PMS5003;34067;39.548;-76.088;2023-11-19T08:43:24;6;6;
31330;PMS5003;34067;39.548;-76.088;2023-11-19T08:45:51;8;8;
31330;PMS5003;34067;39.548;-76.088;2023-11-19T08:48:19;10;9;
31330;PMS5003;34067;39.548;-76.088;2023-11-19T08:50:46;8;6;
31330;PMS5003;34067;39.548;-76.088;2023-11-19T08:53:14;6;6;
31330;PMS5003;34067;39.548;-76.088;2023-11-19T08:55:42;6;6;
31330;PMS5003;34067;39.548;-76.088;2023-11-19T08:58:10;10;6;
31330;PMS5003;34067;39.548;-76.088;2023-11-19T09:00:37;6;6;
31330;PMS5003;34067;39.548;-76.088;2023-11-19T09:03:04;9;6;
31330;PMS5003;34067;39.548;-76.088;2023-11-19T09:05:32;9;9;
31330;PMS5003;34067;39.548;-76.088;2023-11-19T09:07:59;10;10;
31330;PMS5003;34067;39.548;-76.088;2023-11-19T09:10:27;14;12;
31330;PMS5003;34067;39.548;-76.088;2023-11-19T09:12:54;21;21;
31330;PMS5003;34067;39.548;-76.088;2023-11-19T09:15:23;25;24;
31330;PMS5003;34067;39.548;-76.088;2023-11-19T09:17:51;30;30;
31330;PMS5003;34067;39.548;-76.088;2023-11-19T09:20:19;104;104;
31330;PMS5003;34067;39.548;-76.088;2023-11-19T09:22:47;26;26;
31330;PMS5003;34067;39.548;-76.088;2023-11-19T09:25:15;25;24;
31330;PMS5003;34067;39.548;-76.088;2023-11-19T09:27:42;140;139;
31330;PMS5003;34067;39.548;-76.088;2023-11-19T09:30:11;112;112;
31330;PMS5003;34067;39.548;-76.088;2023-11-19T09:32:38;97;97;
31330;PMS5003;34067;39.548;-76.088;2023-11-19T09:35:06;63;63;
31330;PMS5003;34067;39.548;-76.088;2023-11-19T09:37:35;57;56;
31330;PMS5003;34067;39.548;-76.088;2023-11-19T09:40:03;52;52;
31330;PMS5003;34067;39.548;-76.088;2023-11-19T09:42:31;52;52;
31330;PMS5003;34067;39.548;-76.088;2023-11-19T09:45:11;46;45;
31330;PMS5003;34067;39.548;-76.088;2023-11-19T09:47:43;11;10;
31330;PMS5003;34067;39.548;-76.088;2023-11-19T09:50:13;25;24;
31330;PMS5003;34067;39.548;-76.088;2023-11-19T09:52:44;19;18;
31330;PMS5003;34067;39.548;-76.088;2023-11-19T09:55:13;25;24;
31330;PMS5003;34067;39.548;-76.088;2023-11-19T09:57:41;17;16;
31330;PMS5003;34067;39.548;-76.088;2023-11-19T10:00:10;11;11;
31330;PMS5003;34067;39.548;-76.088;2023-11-19T10:02:40;12;11;
31330;PMS5003;34067;39.548;-76.088;2023-11-19T10:05:08;15;15;
31330;PMS5003;34067;39.548;-76.088;2023-11-19T10:07:36;12;11;
31330;PMS5003;34067;39.548;-76.088;2023-11-19T10:10:04;11;11;
31330;PMS5003;34067;39.548;-76.088;2023-11-19T10:12:33;9;9;
31330;PMS5003;34067;39.548;-76.088;2023-11-19T10:15:01;12;10;
31330;PMS5003;34067;39.548;-76.088;2023-11-19T10:17:32;9;9;
31330;PMS5003;34067;39.548;-76.088;2023-11-19T10:20:00;9;8;
31330;PMS5003;34067;39.548;-76.088;2023-11-19T10:22:28;8;8;
31330;PMS5003;34067;39.548;-76.088;2023-11-19T10:24:56;10;8;
31330;PMS5003;34067;39.548;-76.088;2023-11-19T10:27:24;9;8;
31330;PMS5003;34067;39.548;-76.088;2023-11-19T10:29:52;8;8;
31330;PMS5003;34067;39.548;-76.088;2023-11-19T10:32:20;10;8;
31330;PMS5003;34067;39.548;-76.088;2023-11-19T10:34:47;8;8;
31330;PMS5003;34067;39.548;-76.088;2023-11-19T10:37:27;10;8;
31330;PMS5003;34067;39.548;-76.088;2023-11-19T10:39:55;8;8;
31330;PMS5003;34067;39.548;-76.088;2023-11-19T10:42:24;6;6;
31330;PMS5003;34067;39.548;-76.088;2023-11-19T10:44:51;9;8;
31330;PMS5003;34067;39.548;-76.088;2023-11-19T10:47:19;10;10;
31330;PMS5003;34067;39.548;-76.088;2023-11-19T10:49:47;6;5;
31330;PMS5003;34067;39.548;-76.088;2023-11-19T10:52:16;8;8;
31330;PMS5003;34067;39.548;-76.088;2023-11-19T10:54:47;10;9;
31330;PMS5003;34067;39.548;-76.088;2023-11-19T10:57:19;9;8;
31330;PMS5003;34067;39.548;-76.088;2023-11-19T10:59:48;19;18;
31330;PMS5003;34067;39.548;-76.088;2023-11-19T11:02:21;6;6;
31330;PMS5003;34067;39.548;-76.088;2023-11-19T11:04:52;19;18;
31330;PMS5003;34067;39.548;-76.088;2023-11-19T11:07:21;19;18;
31330;PMS5003;34067;39.548;-76.088;2023-11-19T11:09:49;12;11;
31330;PMS5003;34067;39.548;-76.088;2023-11-19T11:12:18;6;6;
31330;PMS5003;34067;39.548;-76.088;2023-11-19T11:14:51;6;6;
31330;PMS5003;34067;39.548;-76.088;2023-11-19T11:17:21;8;5;
31330;PMS5003;34067;39.548;-76.088;2023-11-19T11:19:54;9;9;
31330;PMS5003;34067;39.548;-76.088;2023-11-19T11:22:23;8;6;
31330;PMS5003;34067;39.548;-76.088;2023-11-19T11:24:57;10;9;
31330;PMS5003;34067;39.548;-76.088;2023-11-19T11:27:46;8;8;
31330;PMS5003;34067;39.548;-76.088;2023-11-19T11:30:29;11;10;
31330;PMS5003;34067;39.548;-76.088;2023-11-19T11:33:12;10;10;
31330;PMS5003;34067;39.548;-76.088;2023-11-19T11:35:55;10;10;
31330;PMS5003;34067;39.548;-76.088;2023-11-19T11:38:34;13;13;
31330;PMS5003;34067;39.548;-76.088;2023-11-19T11:41:20;17;16;
31330;PMS5003;34067;39.548;-76.088;2023-11-19T11:43:49;21;21;
31330;PMS5003;34067;39.548;-76.088;2023-11-19T11:47:23;19;18;
31330;PMS5003;34067;39.548;-76.088;2023-11-19T11:49:51;10;9;
31330;PMS5003;34067;39.548;-76.088;2023-11-19T11:52:20;23;23;
31330;PMS5003;34067;39.548;-76.088;2023-11-19T11:54:48;27;26;
31330;PMS5003;34067;39.548;-76.088;2023-11-19T11:57:16;19;19;
31330;PMS5003;34067;39.548;-76.088;2023-11-19T11:59:46;21;20;
31330;PMS5003;34067;39.548;-76.088;2023-11-19T12:02:15;23;22;
31330;PMS5003;34067;39.548;-76.088;2023-11-19T12:04:48;30;28;
31330;PMS5003;34067;39.548;-76.088;2023-11-19T12:07:17;31;31;
31330;PMS5003;34067;39.548;-76.088;2023-11-19T12:09:47;25;25;
31330;PMS5003;34067;39.548;-76.088;2023-11-19T12:12:18;25;25;
31330;PMS5003;34067;39.548;-76.088;2023-11-19T12:15:05;25;25;
31330;PMS5003;34067;39.548;-76.088;2023-11-19T12:17:42;32;32;
31330;PMS5003;34067;39.548;-76.088;2023-11-19T12:20:13;27;26;
31330;PMS5003;34067;39.548;-76.088;2023-11-19T12:22:42;21;19;
31330;PMS5003;34067;39.548;-76.088;2023-11-19T12:25:11;17;17;
31330;PMS5003;34067;39.548;-76.088;2023-11-19T12:27:41;17;17;
31330;PMS5003;34067;39.548;-76.088;2023-11-19T12:30:10;16;16;
31330;PMS5003;34067;39.548;-76.088;2023-11-19T12:32:40;18;17;
31330;PMS5003;34067;39.548;-76.088;2023-11-19T12:35:09;12;11;
31330;PMS5003;34067;39.548;-76.088;2023-11-19T12:37:39;19;19;
31330;PMS5003;34067;39.548;-76.088;2023-11-19T12:40:11;17;17;
31330;PMS5003;34067;39.548;-76.088;2023-11-19T12:42:41;12;12;
31330;PMS5003;34067;39.548;-76.088;2023-11-19T12:45:09;16;12;
31330;PMS5003;34067;39.548;-76.088;2023-11-19T12:47:38;9;8;
31330;PMS5003;34067;39.548;-76.088;2023-11-19T12:50:06;8;8;
31330;PMS5003;34067;39.548;-76.088;2023-11-19T12:52:35;8;6;
31330;PMS5003;34067;39.548;-76.088;2023-11-19T12:55:04;8;6;
31330;PMS5003;34067;39.548;-76.088;2023-11-19T12:57:51;9;9;
31330;PMS5003;34067;39.548;-76.088;2023-11-19T13:00:20;8;8;
31330;PMS5003;34067;39.548;-76.088;2023-11-19T13:02:50;9;9;
31330;PMS5003;34067;39.548;-76.088;2023-11-19T13:05:27;8;8;
31330;PMS5003;34067;39.548;-76.088;2023-11-19T13:07:59;6;6;
31330;PMS5003;34067;39.548;-76.088;2023-11-19T13:10:29;10;9;
31330;PMS5003;34067;39.548;-76.088;2023-11-19T13:13:06;10;9;
31330;PMS5003;34067;39.548;-76.088;2023-11-19T13:15:35;8;8;
31330;PMS5003;34067;39.548;-76.088;2023-11-19T13:18:03;8;6;
31330;PMS5003;34067;39.548;-76.088;2023-11-19T13:20:31;10;9;
31330;PMS5003;34067;39.548;-76.088;2023-11-19T13:23:00;10;7;
31330;PMS5003;34067;39.548;-76.088;2023-11-19T13:25:29;10;9;
31330;PMS5003;34067;39.548;-76.088;2023-11-19T13:27:58;12;11;
31330;PMS5003;34067;39.548;-76.088;2023-11-19T13:30:26;10;10;
31330;PMS5003;34067;39.548;-76.088;2023-11-19T13:32:54;10;9;
31330;PMS5003;34067;39.548;-76.088;2023-11-19T13:35:22;11;7;
31330;PMS5003;34067;39.548;-76.088;2023-11-19T13:37:50;7;7;
31330;PMS5003;34067;39.548;-76.088;2023-11-19T13:40:17;14;10;
31330;PMS5003;34067;39.548;-76.088;2023-11-19T13:42:45;10;10;
31330;PMS5003;34067;39.548;-76.088;2023-11-19T13:45:13;10;10;
31330;PMS5003;34067;39.548;-76.088;2023-11-19T13:47:42;9;9;
31330;PMS5003;34067;39.548;-76.088;2023-11-19T13:50:12;11;10;
31330;PMS5003;34067;39.548;-76.088;2023-11-19T13:52:42;6;6;
31330;PMS5003;34067;39.548;-76.088;2023-11-19T13:55:11;9;9;
31330;PMS5003;34067;39.548;-76.088;2023-11-19T13:57:40;33;33;
31330;PMS5003;34067;39.548;-76.088;2023-11-19T14:00:10;43;42;
31330;PMS5003;34067;39.548;-76.088;2023-11-19T14:02:39;17;14;
31330;PMS5003;34067;39.548;-76.088;2023-11-19T14:05:07;14;13;
31330;PMS5003;34067;39.548;-76.088;2023-11-19T14:07:35;12;12;
31330;PMS5003;34067;39.548;-76.088;2023-11-19T14:10:03;11;11;
31330;PMS5003;34067;39.548;-76.088;2023-11-19T14:12:31;10;10;
31330;PMS5003;34067;39.548;-76.088;2023-11-19T14:14:59;7;6;
31330;PMS5003;34067;39.548;-76.088;2023-11-19T14:17:27;5;5;
31330;PMS5003;34067;39.548;-76.088;2023-11-19T14:19:56;8;6;
31330;PMS5003;34067;39.548;-76.088;2023-11-19T14:22:24;5;5;
31330;PMS5003;34067;39.548;-76.088;2023-11-19T14:24:52;8;7;
31330;PMS5003;34067;39.548;-76.088;2023-11-19T14:27:20;7;7;
31330;PMS5003;34067;39.548;-76.088;2023-11-19T14:29:48;6;6;
31330;PMS5003;34067;39.548;-76.088;2023-11-19T14:32:17;9;7;
31330;PMS5003;34067;39.548;-76.088;2023-11-19T14:34:45;6;6;
31330;PMS5003;34067;39.548;-76.088;2023-11-19T14:37:13;7;6;
31330;PMS5003;34067;39.548;-76.088;2023-11-19T14:39:41;7;6;
31330;PMS5003;34067;39.548;-76.088;2023-11-19T14:42:10;8;8;
31330;PMS5003;34067;39.548;-76.088;2023-11-19T14:44:38;6;6;
31330;PMS5003;34067;39.548;-76.088;2023-11-19T14:47:06;6;6;
31330;PMS5003;34067;39.548;-76.088;2023-11-19T14:49:34;6;4;
31330;PMS5003;34067;39.548;-76.088;2023-11-19T14:52:03;6;5;
31330;PMS5003;34067;39.548;-76.088;2023-11-19T14:54:31;8;6;
31330;PMS5003;34067;39.548;-76.088;2023-11-19T14:56:59;7;6;
31330;PMS5003;34067;39.548;-76.088;2023-11-19T14:59:28;6;6;
31330;PMS5003;34067;39.548;-76.088;2023-11-19T15:01:56;6;6;
31330;PMS5003;34067;39.548;-76.088;2023-11-19T15:04:24;7;6;
31330;PMS5003;34067;39.548;-76.088;2023-11-19T15:06:52;7;6;
31330;PMS5003;34067;39.548;-76.088;2023-11-19T15:09:20;7;6;
31330;PMS5003;34067;39.548;-76.088;2023-11-19T15:11:48;8;7;
31330;PMS5003;34067;39.548;-76.088;2023-11-19T15:14:17;8;7;
31330;PMS5003;34067;39.548;-76.088;2023-11-19T15:16:45;7;6;
31330;PMS5003;34067;39.548;-76.088;2023-11-19T15:19:15;12;8;
31330;PMS5003;34067;39.548;-76.088;2023-11-19T15:21:43;8;7;
31330;PMS5003;34067;39.548;-76.088;2023-11-19T15:24:11;6;6;
31330;PMS5003;34067;39.548;-76.088;2023-11-19T15:26:39;5;5;
31330;PMS5003;34067;39.548;-76.088;2023-11-19T15:29:07;6;6;
31330;PMS5003;34067;39.548;-76.088;2023-11-19T15:31:35;7;6;
31330;PMS5003;34067;39.548;-76.088;2023-11-19T15:34:03;8;7;
31330;PMS5003;34067;39.548;-76.088;2023-11-19T15:36:31;6;6;
31330;PMS5003;34067;39.548;-76.088;2023-11-19T15:38:59;8;7;
31330;PMS5003;34067;39.548;-76.088;2023-11-19T15:41:27;8;8;
31330;PMS5003;34067;39.548;-76.088;2023-11-19T15:43:56;14;14;
31330;PMS5003;34067;39.548;-76.088;2023-11-19T15:46:24;17;16;
31330;PMS5003;34067;39.548;-76.088;2023-11-19T15:48:52;9;8;
31330;PMS5003;34067;39.548;-76.088;2023-11-19T15:51:20;10;10;
31330;PMS5003;34067;39.548;-76.088;2023-11-19T15:53:49;11;10;
31330;PMS5003;34067;39.548;-76.088;2023-11-19T15:56:16;16;14;
31330;PMS5003;34067;39.548;-76.088;2023-11-19T15:58:44;10;9;
31330;PMS5003;34067;39.548;-76.088;2023-11-19T16:01:13;9;8;
31330;PMS5003;34067;39.548;-76.088;2023-11-19T16:03:41;10;9;
31330;PMS5003;34067;39.548;-76.088;2023-11-19T16:06:09;14;13;
31330;PMS5003;34067;39.548;-76.088;2023-11-19T16:08:37;13;11;
31330;PMS5003;34067;39.548;-76.088;2023-11-19T16:11:05;11;10;
31330;PMS5003;34067;39.548;-76.088;2023-11-19T16:13:33;10;9;
31330;PMS5003;34067;39.548;-76.088;2023-11-19T16:16:01;12;11;
31330;PMS5003;34067;39.548;-76.088;2023-11-19T16:18:29;11;11;